sensor_id;sensor_type;location;lat;lon;timestamp;P1;durP1;ratioP1;P2;durP2;ratioP2
42904;SDS011;28550;51.228;4.528;2024-02-04T05:31:53;49.33;;;20.05;;
42904;SDS011;28550;51.228;4.528;2024-02-04T05:38:26;46.85;;;18.92;;
42904;SDS011;28550;51.228;4.528;2024-02-04T09:02:30;15.30;;;8.10;;
42904;SDS011;28550;51.228;4.528;2024-02-04T09:05:18;14.32;;;7.72;;
42904;SDS011;28550;51.228;4.528;2024-02-04T09:07:46;13.95;;;7.75;;
42904;SDS011;28550;51.228;4.528;2024-02-04T09:10:42;17.20;;;7.55;;
42904;SDS011;28550;51.228;4.528;2024-02-04T09:13:54;14.65;;;6.82;;
42904;SDS011;28550;51.228;4.528;2024-02-04T09:16:44;14.57;;;7.25;;
42904;SDS011;28550;51.228;4.528;2024-02-04T09:19:23;14.73;;;7.82;;
42904;SDS011;28550;51.228;4.528;2024-02-04T09:22:02;15.45;;;8.80;;
42904;SDS011;28550;51.228;4.528;2024-02-04T09:24:59;17.75;;;7.82;;
42904;SDS011;28550;51.228;4.528;2024-02-04T09:28:09;15.60;;;7.40;;
42904;SDS011;28550;51.228;4.528;2024-02-04T09:33:41;13.93;;;7.47;;
42904;SDS011;28550;51.228;4.528;2024-02-04T09:36:55;11.93;;;6.97;;
42904;SDS011;28550;51.228;4.528;2024-02-04T09:39:48;15.57;;;7.93;;
42904;SDS011;28550;51.228;4.528;2024-02-04T09:42:43;10.98;;;7.68;;
42904;SDS011;28550;51.228;4.528;2024-02-04T09:45:15;12.10;;;6.88;;
42904;SDS011;28550;51.228;4.528;2024-02-04T09:47:52;9.48;;;6.25;;
42904;SDS011;28550;51.228;4.528;2024-02-04T09:50:23;12.95;;;5.78;;
42904;SDS011;28550;51.228;4.528;2024-02-04T09:52:54;10.65;;;6.78;;
42904;SDS011;28550;51.228;4.528;2024-02-04T09:55:47;11.45;;;6.28;;
42904;SDS011;28550;51.228;4.528;2024-02-04T09:58:48;16.50;;;6.65;;
42904;SDS011;28550;51.228;4.528;2024-02-04T10:01:19;11.63;;;6.80;;
42904;SDS011;28550;51.228;4.528;2024-02-04T10:04:05;17.95;;;7.72;;
42904;SDS011;28550;51.228;4.528;2024-02-04T10:06:53;9.93;;;6.85;;
42904;SDS011;28550;51.228;4.528;2024-02-04T10:33:02;11.30;;;5.88;;
42904;SDS011;28550;51.228;4.528;2024-02-04T10:39:34;11.82;;;5.85;;
42904;SDS011;28550;51.228;4.528;2024-02-04T10:42:35;8.73;;;5.07;;
42904;SDS011;28550;51.228;4.528;2024-02-04T11:01:57;11.65;;;4.72;;
42904;SDS011;28550;51.228;4.528;2024-02-04T11:55:48;8.48;;;5.05;;
42904;SDS011;28550;51.228;4.528;2024-02-04T12:04:36;10.02;;;6.45;;
42904;SDS011;28550;51.228;4.528;2024-02-04T12:07:04;12.10;;;6.47;;
42904;SDS011;28550;51.228;4.528;2024-02-04T12:42:36;11.30;;;4.80;;
42904;SDS011;28550;51.228;4.528;2024-02-04T12:52:07;8.85;;;4.10;;
42904;SDS011;28550;51.228;4.528;2024-02-04T12:55:29;9.23;;;5.05;;
42904;SDS011;28550;51.228;4.528;2024-02-04T12:58:30;9.48;;;3.97;;
42904;SDS011;28550;51.228;4.528;2024-02-04T13:01:20;6.03;;;3.88;;
42904;SDS011;28550;51.228;4.528;2024-02-04T13:04:14;7.13;;;4.03;;
42904;SDS011;28550;51.228;4.528;2024-02-04T13:06:45;10.32;;;4.05;;
42904;SDS011;28550;51.228;4.528;2024-02-04T13:13:07;7.97;;;3.53;;
42904;SDS011;28550;51.228;4.528;2024-02-04T13:15:44;8.43;;;3.83;;
42904;SDS011;28550;51.228;4.528;2024-02-04T13:26:15;8.63;;;3.45;;
42904;SDS011;28550;51.228;4.528;2024-02-04T13:32:52;6.95;;;3.75;;
42904;SDS011;28550;51.228;4.528;2024-02-04T13:35:35;11.13;;;4.32;;
42904;SDS011;28550;51.228;4.528;2024-02-04T13:41:27;8.95;;;3.53;;
42904;SDS011;28550;51.228;4.528;2024-02-04T13:46:57;7.57;;;3.50;;
42904;SDS011;28550;51.228;4.528;2024-02-04T13:55:17;5.68;;;3.28;;
42904;SDS011;28550;51.228;4.528;2024-02-04T13:58:08;10.27;;;3.72;;
42904;SDS011;28550;51.228;4.528;2024-02-04T14:00:38;5.93;;;3.03;;
42904;SDS011;28550;51.228;4.528;2024-02-04T14:03:36;14.15;;;6.95;;
42904;SDS011;28550;51.228;4.528;2024-02-04T14:06:02;8.68;;;4.95;;
42904;SDS011;28550;51.228;4.528;2024-02-04T14:08:33;10.60;;;3.90;;
42904;SDS011;28550;51.228;4.528;2024-02-04T14:11:22;7.03;;;3.40;;
42904;SDS011;28550;51.228;4.528;2024-02-04T14:14:16;8.52;;;3.40;;
42904;SDS011;28550;51.228;4.528;2024-02-04T14:17:51;5.93;;;3.40;;
42904;SDS011;28550;51.228;4.528;2024-02-04T14:20:38;8.32;;;3.15;;
42904;SDS011;28550;51.228;4.528;2024-02-04T14:25:53;7.45;;;3.10;;
42904;SDS011;28550;51.228;4.528;2024-02-04T14:28:22;5.60;;;3.35;;
42904;SDS011;28550;51.228;4.528;2024-02-04T14:31:24;8.48;;;3.58;;
42904;SDS011;28550;51.228;4.528;2024-02-04T14:34:47;9.57;;;4.07;;
42904;SDS011;28550;51.228;4.528;2024-02-04T14:37:36;5.32;;;3.20;;
42904;SDS011;28550;51.228;4.528;2024-02-04T14:40:30;7.47;;;3.28;;
42904;SDS011;28550;51.228;4.528;2024-02-04T14:46:06;6.95;;;3.35;;
42904;SDS011;28550;51.228;4.528;2024-02-04T14:49:11;5.78;;;3.97;;
42904;SDS011;28550;51.228;4.528;2024-02-04T14:51:40;6.97;;;3.38;;
42904;SDS011;28550;51.228;4.528;2024-02-04T14:56:57;10.75;;;3.60;;
42904;SDS011;28550;51.228;4.528;2024-02-04T14:59:33;7.57;;;3.40;;
42904;SDS011;28550;51.228;4.528;2024-02-04T15:02:08;10.52;;;4.28;;
42904;SDS011;28550;51.228;4.528;2024-02-04T15:07:25;11.27;;;3.92;;
42904;SDS011;28550;51.228;4.528;2024-02-04T15:09:57;6.88;;;3.80;;
42904;SDS011;28550;51.228;4.528;2024-02-04T15:12:32;15.48;;;4.05;;
42904;SDS011;28550;51.228;4.528;2024-02-04T15:15:32;12.57;;;5.20;;
42904;SDS011;28550;51.228;4.528;2024-02-04T16:17:37;14.13;;;4.68;;
42904;SDS011;28550;51.228;4.528;2024-02-04T16:20:05;11.93;;;4.75;;
42904;SDS011;28550;51.228;4.528;2024-02-04T16:22:41;16.63;;;6.05;;
42904;SDS011;28550;51.228;4.528;2024-02-04T16:28:56;16.88;;;5.00;;
42904;SDS011;28550;51.228;4.528;2024-02-04T16:31:53;20.92;;;7.00;;
42904;SDS011;28550;51.228;4.528;2024-02-04T16:46:11;11.65;;;4.72;;
42904;SDS011;28550;51.228;4.528;2024-02-04T17:35:56;18.45;;;4.95;;
42904;SDS011;28550;51.228;4.528;2024-02-04T17:38:50;12.30;;;5.35;;
42904;SDS011;28550;51.228;4.528;2024-02-04T17:41:40;18.60;;;6.45;;
42904;SDS011;28550;51.228;4.528;2024-02-04T17:44:24;13.43;;;5.28;;
42904;SDS011;28550;51.228;4.528;2024-02-04T17:47:48;12.82;;;4.68;;
42904;SDS011;28550;51.228;4.528;2024-02-04T19:08:44;20.98;;;6.80;;
42904;SDS011;28550;51.228;4.528;2024-02-04T19:12:25;12.32;;;5.82;;
42904;SDS011;28550;51.228;4.528;2024-02-04T19:15:22;24.92;;;7.43;;
42904;SDS011;28550;51.228;4.528;2024-02-04T19:17:52;18.15;;;6.38;;
42904;SDS011;28550;51.228;4.528;2024-02-04T19:20:28;19.85;;;7.68;;
42904;SDS011;28550;51.228;4.528;2024-02-04T19:23:51;23.02;;;7.22;;
42904;SDS011;28550;51.228;4.528;2024-02-04T19:29:04;21.55;;;7.25;;
42904;SDS011;28550;51.228;4.528;2024-02-04T19:31:50;15.15;;;7.15;;
42904;SDS011;28550;51.228;4.528;2024-02-04T20:13:50;22.35;;;5.93;;
42904;SDS011;28550;51.228;4.528;2024-02-04T20:19:57;17.13;;;6.45;;
42904;SDS011;28550;51.228;4.528;2024-02-04T20:28:16;17.13;;;5.97;;
42904;SDS011;28550;51.228;4.528;2024-02-04T20:31:01;19.42;;;6.55;;
42904;SDS011;28550;51.228;4.528;2024-02-04T20:34:10;16.27;;;7.43;;
42904;SDS011;28550;51.228;4.528;2024-02-04T20:36:58;23.13;;;7.20;;
42904;SDS011;28550;51.228;4.528;2024-02-04T20:39:41;22.45;;;6.22;;
42904;SDS011;28550;51.228;4.528;2024-02-04T20:49:49;23.48;;;6.07;;
42904;SDS011;28550;51.228;4.528;2024-02-04T20:59:42;23.65;;;6.45;;
42904;SDS011;28550;51.228;4.528;2024-02-04T21:08:57;20.60;;;7.20;;
42904;SDS011;28550;51.228;4.528;2024-02-04T21:11:56;23.70;;;7.22;;
42904;SDS011;28550;51.228;4.528;2024-02-04T21:14:23;18.85;;;6.07;;
42904;SDS011;28550;51.228;4.528;2024-02-04T21:17:02;20.75;;;6.22;;
42904;SDS011;28550;51.228;4.528;2024-02-04T21:19:36;22.05;;;7.57;;
42904;SDS011;28550;51.228;4.528;2024-02-04T21:22:16;19.92;;;6.70;;
42904;SDS011;28550;51.228;4.528;2024-02-04T21:27:56;18.98;;;6.78;;
42904;SDS011;28550;51.228;4.528;2024-02-04T21:30:36;26.85;;;6.53;;
42904;SDS011;28550;51.228;4.528;2024-02-04T21:33:02;27.53;;;6.67;;
42904;SDS011;28550;51.228;4.528;2024-02-04T21:35:32;26.23;;;7.13;;
42904;SDS011;28550;51.228;4.528;2024-02-04T21:38:08;21.30;;;5.47;;
42904;SDS011;28550;51.228;4.528;2024-02-04T21:40:44;19.83;;;6.57;;
42904;SDS011;28550;51.228;4.528;2024-02-04T21:43:25;22.25;;;6.43;;
42904;SDS011;28550;51.228;4.528;2024-02-04T21:45:55;24.02;;;6.90;;
42904;SDS011;28550;51.228;4.528;2024-02-04T21:48:46;18.25;;;6.47;;
42904;SDS011;28550;51.228;4.528;2024-02-04T21:51:37;16.23;;;5.90;;
42904;SDS011;28550;51.228;4.528;2024-02-04T21:54:37;21.02;;;5.80;;
42904;SDS011;28550;51.228;4.528;2024-02-04T21:57:07;16.38;;;5.90;;
42904;SDS011;28550;51.228;4.528;2024-02-04T23:18:26;21.13;;;5.97;;
42904;SDS011;28550;51.228;4.528;2024-02-04T23:20:57;23.25;;;6.00;;
42904;SDS011;28550;51.228;4.528;2024-02-04T23:30:19;22.10;;;5.40;;
